Time;durP1;ratioP1;P1;durP2;ratioP2;P2;SDS_P1;SDS_P2;PMS_P1;PMS_P2;Temp;Humidity;BMP_temperature;BMP_pressure;BME280_temperature;BME280_humidity;BME280_pressure;Samples;Min_cycle;Max_cycle;Signal;HPM_P1;HPM_P2
2021/01/05 02:55:39;;;;;;;28.80;18.80;;;1.20;99.90;;;;;;5017500;28;20467;-92
2021/01/05 03:02:33;;;;;;;24.43;18.83;;;1.20;99.90;;;;;;5016905;28;20802;-93
2021/01/05 03:05:09;;;;;;;26.10;18.00;;;1.20;99.90;;;;;;4958028;29;20466;-92
2021/01/05 03:07:38;;;;;;;26.20;18.40;;;1.20;99.90;;;;;;4958301;29;20462;-92
2021/01/05 03:13:52;;;;;;;25.60;18.07;;;1.20;99.90;;;;;;5018220;28;20503;-92
2021/01/05 03:16:24;;;;;;;31.50;21.00;;;1.20;99.90;;;;;;5016726;28;20465;-92
2021/01/05 03:19:03;;;;;;;30.60;19.93;;;1.20;99.90;;;;;;4999510;28;20457;-92
2021/01/05 03:21:37;;;;;;;26.43;18.77;;;1.20;99.90;;;;;;4999240;28;20500;-92
2021/01/05 03:24:06;;;;;;;34.77;19.40;;;1.20;99.90;;;;;;4999465;28;20473;-92
2021/01/05 03:26:39;;;;;;;29.93;19.77;;;1.20;99.90;;;;;;4998964;28;20465;-92
2021/01/05 03:29:08;;;;;;;28.90;19.07;;;1.20;99.90;;;;;;4999467;28;20473;-92
2021/01/05 03:31:44;;;;;;;29.57;20.47;;;1.20;99.90;;;;;;4998848;28;20769;-92
2021/01/05 03:34:11;;;;;;;29.77;19.57;;;1.20;99.90;;;;;;4999051;28;20530;-92
2021/01/05 03:36:39;;;;;;;24.90;17.87;;;1.20;99.90;;;;;;4999192;28;20524;-92
2021/01/05 03:39:07;;;;;;;28.57;19.00;;;1.20;99.90;;;;;;4999068;28;20493;-91
2021/01/05 03:41:34;;;;;;;26.43;18.50;;;1.20;99.90;;;;;;4999180;28;20561;-92
2021/01/05 03:44:03;;;;;;;35.50;19.50;;;1.20;99.90;;;;;;4998641;28;20560;-92
2021/01/05 03:47:21;;;;;;;27.00;17.77;;;1.20;99.90;;;;;;4998992;28;20506;-92
2021/01/05 03:50:31;;;;;;;25.40;16.63;;;1.20;99.90;;;;;;4998066;28;20496;-92
2021/01/05 03:53:14;;;;;;;26.30;18.00;;;1.10;99.90;;;;;;4985697;28;20489;-92
2021/01/05 04:21:54;;;;;;;29.33;18.70;;;1.30;99.90;;;;;;4997201;28;20471;-92
2021/01/05 04:36:58;;;;;;;27.03;17.10;;;1.20;99.90;;;;;;4997863;28;20468;-92
2021/01/05 04:39:39;;;;;;;33.53;19.77;;;1.20;99.90;;;;;;4997902;28;20471;-92
2021/01/05 04:51:47;;;;;;;29.00;19.73;;;1.10;99.90;;;;;;5017726;28;20516;-92
2021/01/05 04:54:29;;;;;;;34.67;20.10;;;1.10;99.90;;;;;;5017888;28;20551;-92
2021/01/05 05:00:06;;;;;;;32.20;18.83;;;1.20;99.90;;;;;;5015742;28;20495;-92
2021/01/05 05:03:02;;;;;;;29.50;19.07;;;1.20;99.90;;;;;;5017178;28;20471;-92
2021/01/05 05:24:26;;;;;;;32.40;19.47;;;1.20;99.90;;;;;;5001130;28;20490;-92
2021/01/05 05:27:29;;;;;;;33.60;21.27;;;1.20;99.90;;;;;;5001275;28;20461;-92
2021/01/05 05:30:22;;;;;;;31.40;18.47;;;1.20;99.90;;;;;;5001128;28;20917;-92
2021/01/05 05:42:03;;;;;;;31.70;18.47;;;1.20;99.90;;;;;;5000894;28;20531;-92
2021/01/05 05:51:23;;;;;;;34.37;20.60;;;1.10;99.90;;;;;;5001198;28;20453;-92
2021/01/05 05:57:21;;;;;;;42.30;22.83;;;1.20;99.90;;;;;;5000385;28;20788;-92
2021/01/05 06:11:37;;;;;;;33.97;21.07;;;1.10;99.90;;;;;;4999940;28;20501;-92
2021/01/05 06:20:08;;;;;;;40.77;23.10;;;1.20;99.90;;;;;;5000431;28;20493;-92
2021/01/05 06:25:36;;;;;;;32.87;19.47;;;1.20;99.90;;;;;;4995366;28;20898;-92
2021/01/05 06:28:15;;;;;;;34.93;20.33;;;1.20;99.90;;;;;;4999695;28;20530;-92
2021/01/05 06:31:06;;;;;;;35.27;20.83;;;1.20;99.90;;;;;;5001313;28;20527;-92
2021/01/05 06:39:21;;;;;;;35.47;20.10;;;1.10;99.90;;;;;;5010790;28;20493;-92
2021/01/05 07:09:03;;;;;;;35.30;20.23;;;1.20;99.90;;;;;;4979433;28;20970;-93
2021/01/05 07:18:02;;;;;;;37.40;21.13;;;1.20;99.90;;;;;;4979988;28;20614;-92
2021/01/05 07:36:04;;;;;;;38.60;20.63;;;1.30;99.90;;;;;;4998670;28;20458;-92
2021/01/05 07:38:36;;;;;;;38.60;21.50;;;1.30;99.90;;;;;;4937605;28;20525;-91
2021/01/05 07:41:04;;;;;;;33.57;19.13;;;1.30;99.90;;;;;;4978204;28;20792;-91
2021/01/05 07:43:33;;;;;;;36.07;20.70;;;1.30;99.90;;;;;;4978885;28;20517;-92
2021/01/05 07:46:03;;;;;;;39.03;21.67;;;1.30;99.90;;;;;;4979185;28;20470;-91
2021/01/05 07:48:35;;;;;;;38.97;22.43;;;1.20;99.90;;;;;;4994542;28;20942;-91
2021/01/05 07:53:47;;;;;;;37.70;20.80;;;1.30;99.90;;;;;;4997989;28;20473;-91
2021/01/05 07:56:16;;;;;;;34.83;19.03;;;1.30;99.90;;;;;;4997214;28;20437;-91
2021/01/05 07:58:46;;;;;;;34.90;19.80;;;1.30;99.90;;;;;;4997929;28;20476;-91
2021/01/05 08:04:13;;;;;;;36.80;20.03;;;1.20;99.90;;;;;;5011492;23;20492;-91
2021/01/05 08:09:28;;;;;;;35.63;20.30;;;1.30;99.90;;;;;;5037470;28;20757;-91
2021/01/05 08:11:57;;;;;;;39.00;21.50;;;1.30;99.90;;;;;;5037255;28;20787;-91
2021/01/05 08:14:27;;;;;;;35.33;20.57;;;1.30;99.90;;;;;;5037457;28;20896;-91
2021/01/05 08:16:55;;;;;;;37.50;22.67;;;1.30;99.90;;;;;;5037552;28;20477;-91
2021/01/05 08:19:28;;;;;;;33.90;19.07;;;1.30;99.90;;;;;;5036938;28;20760;-91
2021/01/05 08:21:56;;;;;;;29.97;19.43;;;1.30;99.90;;;;;;5031720;28;21015;-91
2021/01/05 08:24:25;;;;;;;39.93;22.60;;;1.30;99.90;;;;;;5019663;28;20471;-91
2021/01/05 08:26:55;;;;;;;36.77;20.30;;;1.30;99.90;;;;;;5018997;28;20471;-92
2021/01/05 08:29:26;;;;;;;35.23;18.50;;;1.30;99.90;;;;;;5015803;28;20461;-91
2021/01/05 08:32:00;;;;;;;34.73;20.00;;;1.30;99.90;;;;;;5017529;28;20567;-92
2021/01/05 08:34:39;;;;;;;37.53;21.57;;;1.30;99.90;;;;;;5037209;28;20463;-91
2021/01/05 08:37:11;;;;;;;39.00;21.50;;;1.20;99.90;;;;;;5036018;28;20895;-91
2021/01/05 08:39:41;;;;;;;36.53;21.50;;;1.20;99.90;;;;;;5025817;28;20576;-91
2021/01/05 08:42:11;;;;;;;35.37;20.10;;;1.30;99.90;;;;;;5036700;28;20904;-91
2021/01/05 08:44:42;;;;;;;33.60;20.70;;;1.30;99.90;;;;;;5038061;28;20452;-91
2021/01/05 08:47:17;;;;;;;32.23;19.57;;;1.30;99.90;;;;;;5041979;28;20897;-91
2021/01/05 08:49:54;;;;;;;37.93;18.60;;;1.30;99.90;;;;;;5039908;28;20859;-91
2021/01/05 08:52:22;;;;;;;46.80;22.67;;;1.40;99.90;;;;;;5041265;28;20504;-91
2021/01/05 08:54:50;;;;;;;40.03;21.37;;;1.30;99.90;;;;;;5040802;28;20499;-91
2021/01/05 08:57:23;;;;;;;37.83;20.30;;;1.30;99.90;;;;;;5041389;28;20477;-91
2021/01/05 08:59:57;;;;;;;35.40;19.30;;;1.30;99.90;;;;;;5035332;28;20479;-91
2021/01/05 09:02:28;;;;;;;33.37;18.80;;;1.30;99.90;;;;;;5040900;28;20474;-91
2021/01/05 09:04:58;;;;;;;39.20;20.07;;;1.30;99.90;;;;;;5025862;28;20591;-91
2021/01/05 09:07:25;;;;;;;40.90;19.80;;;1.30;99.90;;;;;;5019860;28;20477;-91
2021/01/05 09:10:00;;;;;;;41.77;21.30;;;1.30;99.90;;;;;;5019964;28;20562;-91
2021/01/05 09:12:38;;;;;;;46.27;21.37;;;1.20;99.90;;;;;;5019548;28;20754;-91
2021/01/05 09:15:16;;;;;;;39.70;21.97;;;1.30;99.90;;;;;;5019080;28;20460;-91
2021/01/05 09:17:48;;;;;;;41.57;21.83;;;1.30;99.90;;;;;;5019395;28;20464;-91
2021/01/05 09:20:20;;;;;;;41.20;20.87;;;1.30;99.90;;;;;;5018256;28;20852;-91
2021/01/05 09:22:47;;;;;;;42.80;22.23;;;1.30;99.90;;;;;;5020258;28;20464;-91
2021/01/05 09:25:15;;;;;;;36.57;20.63;;;1.30;99.90;;;;;;5026580;28;20914;-91
2021/01/05 09:27:42;;;;;;;39.03;20.80;;;1.30;99.90;;;;;;5037065;28;20464;-91
2021/01/05 09:30:14;;;;;;;43.23;20.80;;;1.30;99.90;;;;;;5021219;28;20460;-91
2021/01/05 09:32:42;;;;;;;34.33;19.63;;;1.40;99.90;;;;;;5028641;28;20497;-92
